sensor_id;sensor_type;location;lat;lon;timestamp;temperature;humidity
5457;DHT22;2751;49.802;9.944;2023-07-31T00:02:02;19.20;96.80
5457;DHT22;2751;49.802;9.944;2023-07-31T00:04:29;19.30;97.10
5457;DHT22;2751;49.802;9.944;2023-07-31T00:06:56;19.30;97.10
5457;DHT22;2751;49.802;9.944;2023-07-31T00:09:23;19.30;96.80
5457;DHT22;2751;49.802;9.944;2023-07-31T00:11:50;19.30;97.10
5457;DHT22;2751;49.802;9.944;2023-07-31T00:14:16;19.30;97.20
5457;DHT22;2751;49.802;9.944;2023-07-31T00:16:45;19.30;97.20
5457;DHT22;2751;49.802;9.944;2023-07-31T00:19:12;19.30;97.40
5457;DHT22;2751;49.802;9.944;2023-07-31T00:21:38;19.20;97.30
5457;DHT22;2751;49.802;9.944;2023-07-31T00:24:05;19.20;97.50
5457;DHT22;2751;49.802;9.944;2023-07-31T00:26:32;19.20;97.70
5457;DHT22;2751;49.802;9.944;2023-07-31T00:28:58;18.80;97.60
5457;DHT22;2751;49.802;9.944;2023-07-31T00:31:25;19.20;98.30
5457;DHT22;2751;49.802;9.944;2023-07-31T00:33:53;19.10;98.00
5457;DHT22;2751;49.802;9.944;2023-07-31T00:36:20;19.00;99.10
5457;DHT22;2751;49.802;9.944;2023-07-31T00:38:47;19.10;98.40
5457;DHT22;2751;49.802;9.944;2023-07-31T00:41:14;19.00;98.50
5457;DHT22;2751;49.802;9.944;2023-07-31T00:43:41;18.90;99.20
5457;DHT22;2751;49.802;9.944;2023-07-31T00:46:08;18.90;99.00
5457;DHT22;2751;49.802;9.944;2023-07-31T00:48:35;18.80;99.20
5457;DHT22;2751;49.802;9.944;2023-07-31T00:51:06;18.80;99.60
5457;DHT22;2751;49.802;9.944;2023-07-31T00:53:33;18.70;99.40
5457;DHT22;2751;49.802;9.944;2023-07-31T00:56:00;18.70;99.90
5457;DHT22;2751;49.802;9.944;2023-07-31T00:58:27;18.70;99.90
5457;DHT22;2751;49.802;9.944;2023-07-31T01:00:54;18.70;99.90
5457;DHT22;2751;49.802;9.944;2023-07-31T01:03:21;18.60;99.90
5457;DHT22;2751;49.802;9.944;2023-07-31T01:05:54;18.60;99.90
5457;DHT22;2751;49.802;9.944;2023-07-31T01:08:31;18.60;99.90
5457;DHT22;2751;49.802;9.944;2023-07-31T01:11:02;18.60;99.90
5457;DHT22;2751;49.802;9.944;2023-07-31T01:13:32;18.50;99.90
5457;DHT22;2751;49.802;9.944;2023-07-31T01:15:59;18.50;99.90
5457;DHT22;2751;49.802;9.944;2023-07-31T01:18:26;18.50;99.90
5457;DHT22;2751;49.802;9.944;2023-07-31T01:20:57;18.50;99.90
5457;DHT22;2751;49.802;9.944;2023-07-31T01:23:51;18.50;99.90
5457;DHT22;2751;49.802;9.944;2023-07-31T01:26:30;18.50;99.90
5457;DHT22;2751;49.802;9.944;2023-07-31T01:29:02;18.50;99.90
5457;DHT22;2751;49.802;9.944;2023-07-31T01:31:32;18.50;99.90
5457;DHT22;2751;49.802;9.944;2023-07-31T01:34:01;18.50;99.90
5457;DHT22;2751;49.802;9.944;2023-07-31T01:36:28;18.50;99.90
5457;DHT22;2751;49.802;9.944;2023-07-31T01:38:58;18.50;99.90
5457;DHT22;2751;49.802;9.944;2023-07-31T01:41:27;18.40;99.90
5457;DHT22;2751;49.802;9.944;2023-07-31T01:43:54;18.30;99.90
5457;DHT22;2751;49.802;9.944;2023-07-31T01:46:21;18.30;99.90
5457;DHT22;2751;49.802;9.944;2023-07-31T01:48:47;18.30;99.90
5457;DHT22;2751;49.802;9.944;2023-07-31T01:51:14;18.30;99.90
5457;DHT22;2751;49.802;9.944;2023-07-31T01:53:41;18.30;99.90
5457;DHT22;2751;49.802;9.944;2023-07-31T01:56:08;18.30;99.90
5457;DHT22;2751;49.802;9.944;2023-07-31T01:58:36;18.30;99.90
5457;DHT22;2751;49.802;9.944;2023-07-31T02:01:03;18.20;99.90
5457;DHT22;2751;49.802;9.944;2023-07-31T02:03:30;18.20;99.90
5457;DHT22;2751;49.802;9.944;2023-07-31T02:05:57;18.20;99.90
5457;DHT22;2751;49.802;9.944;2023-07-31T02:08:24;18.20;99.90
5457;DHT22;2751;49.802;9.944;2023-07-31T02:10:51;18.30;99.90
5457;DHT22;2751;49.802;9.944;2023-07-31T02:13:18;18.20;99.90
5457;DHT22;2751;49.802;9.944;2023-07-31T02:15:47;18.20;99.90
5457;DHT22;2751;49.802;9.944;2023-07-31T02:18:14;18.20;99.90
5457;DHT22;2751;49.802;9.944;2023-07-31T02:20:41;18.20;99.90
5457;DHT22;2751;49.802;9.944;2023-07-31T02:23:08;18.10;99.90
5457;DHT22;2751;49.802;9.944;2023-07-31T02:25:35;18.20;99.90
5457;DHT22;2751;49.802;9.944;2023-07-31T02:28:02;18.30;99.90
5457;DHT22;2751;49.802;9.944;2023-07-31T02:30:28;18.30;99.90
5457;DHT22;2751;49.802;9.944;2023-07-31T02:32:57;18.20;99.90
5457;DHT22;2751;49.802;9.944;2023-07-31T02:35:23;18.10;99.90
5457;DHT22;2751;49.802;9.944;2023-07-31T02:37:50;18.10;99.90
5457;DHT22;2751;49.802;9.944;2023-07-31T02:40:17;18.00;99.90
5457;DHT22;2751;49.802;9.944;2023-07-31T02:42:44;18.00;99.90
5457;DHT22;2751;49.802;9.944;2023-07-31T02:45:11;18.00;99.90
5457;DHT22;2751;49.802;9.944;2023-07-31T02:47:38;17.90;99.90
5457;DHT22;2751;49.802;9.944;2023-07-31T02:50:07;17.90;99.90
5457;DHT22;2751;49.802;9.944;2023-07-31T02:52:34;17.90;99.90
5457;DHT22;2751;49.802;9.944;2023-07-31T02:55:01;17.80;99.90
5457;DHT22;2751;49.802;9.944;2023-07-31T02:57:28;17.80;99.90
5457;DHT22;2751;49.802;9.944;2023-07-31T02:59:55;17.80;99.90
5457;DHT22;2751;49.802;9.944;2023-07-31T03:02:22;17.80;99.90
5457;DHT22;2751;49.802;9.944;2023-07-31T03:04:48;17.80;99.90
5457;DHT22;2751;49.802;9.944;2023-07-31T03:07:17;17.80;99.90
5457;DHT22;2751;49.802;9.944;2023-07-31T03:09:44;17.70;99.90
5457;DHT22;2751;49.802;9.944;2023-07-31T03:12:11;17.70;99.90
5457;DHT22;2751;49.802;9.944;2023-07-31T03:14:37;17.70;99.90
5457;DHT22;2751;49.802;9.944;2023-07-31T03:17:04;17.70;99.90
5457;DHT22;2751;49.802;9.944;2023-07-31T03:19:32;17.70;99.90
5457;DHT22;2751;49.802;9.944;2023-07-31T03:21:58;17.70;99.90
5457;DHT22;2751;49.802;9.944;2023-07-31T03:24:28;17.70;99.90
5457;DHT22;2751;49.802;9.944;2023-07-31T03:26:56;17.70;99.90
5457;DHT22;2751;49.802;9.944;2023-07-31T03:29:23;17.70;99.90
5457;DHT22;2751;49.802;9.944;2023-07-31T03:31:50;17.70;99.90
5457;DHT22;2751;49.802;9.944;2023-07-31T03:34:17;17.70;99.90
5457;DHT22;2751;49.802;9.944;2023-07-31T03:36:44;17.80;99.90
5457;DHT22;2751;49.802;9.944;2023-07-31T03:39:11;17.80;99.90
5457;DHT22;2751;49.802;9.944;2023-07-31T03:41:39;17.80;99.90
5457;DHT22;2751;49.802;9.944;2023-07-31T03:44:06;17.80;99.90
5457;DHT22;2751;49.802;9.944;2023-07-31T03:46:33;17.80;99.90
5457;DHT22;2751;49.802;9.944;2023-07-31T03:49:01;17.80;99.90
5457;DHT22;2751;49.802;9.944;2023-07-31T03:51:28;17.80;99.90
5457;DHT22;2751;49.802;9.944;2023-07-31T03:53:55;17.80;99.90
5457;DHT22;2751;49.802;9.944;2023-07-31T03:56:22;17.80;99.90
5457;DHT22;2751;49.802;9.944;2023-07-31T03:58:50;17.70;99.90
5457;DHT22;2751;49.802;9.944;2023-07-31T04:01:17;17.70;99.90
5457;DHT22;2751;49.802;9.944;2023-07-31T04:03:45;17.70;99.90
5457;DHT22;2751;49.802;9.944;2023-07-31T04:06:12;17.60;99.90
5457;DHT22;2751;49.802;9.944;2023-07-31T04:08:39;17.60;99.90
5457;DHT22;2751;49.802;9.944;2023-07-31T04:11:05;17.60;99.90
5457;DHT22;2751;49.802;9.944;2023-07-31T04:13:32;17.70;99.90
5457;DHT22;2751;49.802;9.944;2023-07-31T04:16:01;17.70;99.90
5457;DHT22;2751;49.802;9.944;2023-07-31T04:18:27;17.70;99.90
5457;DHT22;2751;49.802;9.944;2023-07-31T04:20:56;17.70;99.90
5457;DHT22;2751;49.802;9.944;2023-07-31T04:23:23;17.80;99.90
5457;DHT22;2751;49.802;9.944;2023-07-31T04:25:50;17.80;99.90
5457;DHT22;2751;49.802;9.944;2023-07-31T04:28:17;17.80;99.90
5457;DHT22;2751;49.802;9.944;2023-07-31T04:30:44;17.90;99.90
5457;DHT22;2751;49.802;9.944;2023-07-31T04:33:12;17.90;99.90
5457;DHT22;2751;49.802;9.944;2023-07-31T04:35:39;17.90;99.90
5457;DHT22;2751;49.802;9.944;2023-07-31T04:38:06;17.90;99.90
5457;DHT22;2751;49.802;9.944;2023-07-31T04:40:33;17.90;99.90
5457;DHT22;2751;49.802;9.944;2023-07-31T04:43:00;17.90;99.90
5457;DHT22;2751;49.802;9.944;2023-07-31T04:45:27;18.00;99.90
5457;DHT22;2751;49.802;9.944;2023-07-31T04:47:54;18.10;99.90
5457;DHT22;2751;49.802;9.944;2023-07-31T04:50:22;18.20;99.90
5457;DHT22;2751;49.802;9.944;2023-07-31T04:52:49;18.20;99.90
5457;DHT22;2751;49.802;9.944;2023-07-31T04:55:16;18.30;99.90
5457;DHT22;2751;49.802;9.944;2023-07-31T04:57:43;18.30;99.90
5457;DHT22;2751;49.802;9.944;2023-07-31T05:00:11;18.40;99.90
5457;DHT22;2751;49.802;9.944;2023-07-31T05:02:38;18.40;99.90
5457;DHT22;2751;49.802;9.944;2023-07-31T05:05:05;18.50;99.90
5457;DHT22;2751;49.802;9.944;2023-07-31T05:07:34;18.60;99.90
5457;DHT22;2751;49.802;9.944;2023-07-31T05:10:00;18.60;99.90
5457;DHT22;2751;49.802;9.944;2023-07-31T05:12:27;18.70;99.90
5457;DHT22;2751;49.802;9.944;2023-07-31T05:14:54;18.70;99.90
5457;DHT22;2751;49.802;9.944;2023-07-31T05:17:21;18.80;99.90
5457;DHT22;2751;49.802;9.944;2023-07-31T05:19:48;18.80;99.90
5457;DHT22;2751;49.802;9.944;2023-07-31T05:22:15;18.80;99.90
5457;DHT22;2751;49.802;9.944;2023-07-31T05:24:43;18.80;99.90
5457;DHT22;2751;49.802;9.944;2023-07-31T05:27:10;18.80;99.90
5457;DHT22;2751;49.802;9.944;2023-07-31T05:29:38;18.90;99.90
5457;DHT22;2751;49.802;9.944;2023-07-31T05:32:06;18.80;99.90
5457;DHT22;2751;49.802;9.944;2023-07-31T05:34:33;18.80;99.90
5457;DHT22;2751;49.802;9.944;2023-07-31T05:37:00;18.90;99.90
5457;DHT22;2751;49.802;9.944;2023-07-31T05:39:27;18.90;99.90
5457;DHT22;2751;49.802;9.944;2023-07-31T05:41:55;19.00;99.90
5457;DHT22;2751;49.802;9.944;2023-07-31T05:44:22;19.10;99.90
5457;DHT22;2751;49.802;9.944;2023-07-31T05:46:48;19.20;99.90
5457;DHT22;2751;49.802;9.944;2023-07-31T05:49:15;19.30;99.90
5457;DHT22;2751;49.802;9.944;2023-07-31T05:51:42;19.40;99.90
5457;DHT22;2751;49.802;9.944;2023-07-31T05:54:09;19.40;99.90
5457;DHT22;2751;49.802;9.944;2023-07-31T05:56:36;19.40;99.90
5457;DHT22;2751;49.802;9.944;2023-07-31T05:59:04;19.60;99.90
5457;DHT22;2751;49.802;9.944;2023-07-31T06:01:31;19.60;99.90
5457;DHT22;2751;49.802;9.944;2023-07-31T06:03:58;19.60;99.90
5457;DHT22;2751;49.802;9.944;2023-07-31T06:06:25;19.70;99.90
5457;DHT22;2751;49.802;9.944;2023-07-31T06:08:52;19.70;99.90
5457;DHT22;2751;49.802;9.944;2023-07-31T06:11:20;19.80;99.90
5457;DHT22;2751;49.802;9.944;2023-07-31T06:13:47;19.90;99.90
5457;DHT22;2751;49.802;9.944;2023-07-31T06:16:16;20.00;99.90
5457;DHT22;2751;49.802;9.944;2023-07-31T06:18:43;20.20;99.90
5457;DHT22;2751;49.802;9.944;2023-07-31T06:21:10;20.20;99.90
5457;DHT22;2751;49.802;9.944;2023-07-31T06:23:37;20.20;99.90
5457;DHT22;2751;49.802;9.944;2023-07-31T06:26:04;20.10;99.90
5457;DHT22;2751;49.802;9.944;2023-07-31T06:28:31;20.00;99.90
5457;DHT22;2751;49.802;9.944;2023-07-31T06:30:59;19.90;99.90
5457;DHT22;2751;49.802;9.944;2023-07-31T06:33:28;20.10;99.90
5457;DHT22;2751;49.802;9.944;2023-07-31T06:35:54;20.00;99.90
5457;DHT22;2751;49.802;9.944;2023-07-31T06:38:24;20.00;99.90
5457;DHT22;2751;49.802;9.944;2023-07-31T06:40:51;20.00;99.90
5457;DHT22;2751;49.802;9.944;2023-07-31T06:43:18;20.10;99.90
5457;DHT22;2751;49.802;9.944;2023-07-31T06:45:45;20.20;99.90
5457;DHT22;2751;49.802;9.944;2023-07-31T06:48:14;20.20;99.90
5457;DHT22;2751;49.802;9.944;2023-07-31T06:50:42;20.40;99.90
5457;DHT22;2751;49.802;9.944;2023-07-31T06:53:09;20.50;99.90
5457;DHT22;2751;49.802;9.944;2023-07-31T06:55:36;20.50;99.90
5457;DHT22;2751;49.802;9.944;2023-07-31T06:58:03;20.60;99.90
5457;DHT22;2751;49.802;9.944;2023-07-31T07:00:30;20.60;99.90
5457;DHT22;2751;49.802;9.944;2023-07-31T07:02:57;20.60;99.90
5457;DHT22;2751;49.802;9.944;2023-07-31T07:05:24;20.60;99.90
5457;DHT22;2751;49.802;9.944;2023-07-31T07:07:53;20.60;99.90
5457;DHT22;2751;49.802;9.944;2023-07-31T07:10:20;20.60;99.90
5457;DHT22;2751;49.802;9.944;2023-07-31T07:12:47;20.50;99.90
5457;DHT22;2751;49.802;9.944;2023-07-31T07:15:14;20.60;99.90
5457;DHT22;2751;49.802;9.944;2023-07-31T07:17:41;20.60;99.90
5457;DHT22;2751;49.802;9.944;2023-07-31T07:20:09;20.60;99.90
5457;DHT22;2751;49.802;9.944;2023-07-31T07:22:36;20.70;99.90
5457;DHT22;2751;49.802;9.944;2023-07-31T07:25:04;20.80;99.90
5457;DHT22;2751;49.802;9.944;2023-07-31T07:27:32;20.80;99.90
5457;DHT22;2751;49.802;9.944;2023-07-31T07:30:01;20.90;99.90
5457;DHT22;2751;49.802;9.944;2023-07-31T07:32:29;21.00;99.90
5457;DHT22;2751;49.802;9.944;2023-07-31T07:34:56;21.10;99.90
5457;DHT22;2751;49.802;9.944;2023-07-31T07:37:23;21.10;99.90
5457;DHT22;2751;49.802;9.944;2023-07-31T07:39:50;21.10;99.90
5457;DHT22;2751;49.802;9.944;2023-07-31T07:42:18;21.00;99.90
5457;DHT22;2751;49.802;9.944;2023-07-31T07:44:45;21.00;99.90
5457;DHT22;2751;49.802;9.944;2023-07-31T07:47:12;21.20;99.90
5457;DHT22;2751;49.802;9.944;2023-07-31T07:49:39;21.30;99.90
5457;DHT22;2751;49.802;9.944;2023-07-31T07:52:06;21.30;99.90
5457;DHT22;2751;49.802;9.944;2023-07-31T07:54:33;21.30;99.90
5457;DHT22;2751;49.802;9.944;2023-07-31T07:57:00;21.50;99.90
5457;DHT22;2751;49.802;9.944;2023-07-31T07:59:28;21.90;99.90
5457;DHT22;2751;49.802;9.944;2023-07-31T08:01:55;22.30;99.90
5457;DHT22;2751;49.802;9.944;2023-07-31T08:04:23;22.50;99.90
5457;DHT22;2751;49.802;9.944;2023-07-31T08:06:50;22.70;99.90
5457;DHT22;2751;49.802;9.944;2023-07-31T08:09:16;22.60;99.90
5457;DHT22;2751;49.802;9.944;2023-07-31T08:11:43;22.70;99.90
5457;DHT22;2751;49.802;9.944;2023-07-31T08:14:10;22.80;99.90
5457;DHT22;2751;49.802;9.944;2023-07-31T08:16:38;22.50;99.90
5457;DHT22;2751;49.802;9.944;2023-07-31T08:19:05;22.20;99.90
5457;DHT22;2751;49.802;9.944;2023-07-31T08:21:32;22.10;99.90
5457;DHT22;2751;49.802;9.944;2023-07-31T08:23:59;22.20;99.90
5457;DHT22;2751;49.802;9.944;2023-07-31T08:26:26;22.20;99.90
5457;DHT22;2751;49.802;9.944;2023-07-31T08:28:53;22.30;99.90
5457;DHT22;2751;49.802;9.944;2023-07-31T08:31:20;22.30;99.90
5457;DHT22;2751;49.802;9.944;2023-07-31T08:33:48;22.10;99.90
5457;DHT22;2751;49.802;9.944;2023-07-31T08:36:15;22.10;99.90
5457;DHT22;2751;49.802;9.944;2023-07-31T08:38:42;22.50;99.90
5457;DHT22;2751;49.802;9.944;2023-07-31T08:41:09;23.00;99.90
5457;DHT22;2751;49.802;9.944;2023-07-31T08:43:36;23.00;99.90
5457;DHT22;2751;49.802;9.944;2023-07-31T08:46:05;22.90;99.90
5457;DHT22;2751;49.802;9.944;2023-07-31T08:48:32;22.70;99.90
5457;DHT22;2751;49.802;9.944;2023-07-31T08:51:00;22.70;99.90
5457;DHT22;2751;49.802;9.944;2023-07-31T08:53:27;22.60;99.90
5457;DHT22;2751;49.802;9.944;2023-07-31T08:55:55;23.30;99.90
5457;DHT22;2751;49.802;9.944;2023-07-31T08:58:24;23.80;99.90
5457;DHT22;2751;49.802;9.944;2023-07-31T09:00:52;23.30;99.90
5457;DHT22;2751;49.802;9.944;2023-07-31T09:03:23;23.10;99.90
5457;DHT22;2751;49.802;9.944;2023-07-31T09:05:50;24.10;99.90
5457;DHT22;2751;49.802;9.944;2023-07-31T09:08:21;24.40;99.90
5457;DHT22;2751;49.802;9.944;2023-07-31T09:10:48;24.70;99.90
5457;DHT22;2751;49.802;9.944;2023-07-31T09:13:16;25.10;99.90
5457;DHT22;2751;49.802;9.944;2023-07-31T09:15:45;25.30;99.90
5457;DHT22;2751;49.802;9.944;2023-07-31T09:18:12;26.90;99.10
5457;DHT22;2751;49.802;9.944;2023-07-31T09:20:39;26.10;98.20
5457;DHT22;2751;49.802;9.944;2023-07-31T09:23:07;24.70;99.90
5457;DHT22;2751;49.802;9.944;2023-07-31T09:25:37;23.70;99.90
5457;DHT22;2751;49.802;9.944;2023-07-31T09:28:05;23.60;99.90
5457;DHT22;2751;49.802;9.944;2023-07-31T09:30:45;23.80;99.90
5457;DHT22;2751;49.802;9.944;2023-07-31T09:33:12;24.10;99.90
5457;DHT22;2751;49.802;9.944;2023-07-31T09:35:39;24.50;99.90
5457;DHT22;2751;49.802;9.944;2023-07-31T09:38:08;24.30;99.90
5457;DHT22;2751;49.802;9.944;2023-07-31T09:40:39;24.80;99.90
5457;DHT22;2751;49.802;9.944;2023-07-31T09:43:07;25.80;98.70
5457;DHT22;2751;49.802;9.944;2023-07-31T09:45:36;25.90;98.10
5457;DHT22;2751;49.802;9.944;2023-07-31T09:48:07;25.30;98.20
5457;DHT22;2751;49.802;9.944;2023-07-31T09:50:37;25.30;98.70
5457;DHT22;2751;49.802;9.944;2023-07-31T09:53:04;25.00;98.70
5457;DHT22;2751;49.802;9.944;2023-07-31T09:55:32;24.40;98.90
5457;DHT22;2751;49.802;9.944;2023-07-31T09:58:03;23.90;99.90
5457;DHT22;2751;49.802;9.944;2023-07-31T10:00:31;24.00;99.60
5457;DHT22;2751;49.802;9.944;2023-07-31T10:02:59;23.80;99.40
5457;DHT22;2751;49.802;9.944;2023-07-31T10:05:30;23.60;99.90
5457;DHT22;2751;49.802;9.944;2023-07-31T10:07:58;23.50;99.90
5457;DHT22;2751;49.802;9.944;2023-07-31T10:10:25;23.30;99.90
5457;DHT22;2751;49.802;9.944;2023-07-31T10:12:53;23.70;99.90
5457;DHT22;2751;49.802;9.944;2023-07-31T10:15:22;24.30;99.50
5457;DHT22;2751;49.802;9.944;2023-07-31T10:17:49;24.20;99.20
5457;DHT22;2751;49.802;9.944;2023-07-31T10:20:17;23.90;99.40
5457;DHT22;2751;49.802;9.944;2023-07-31T10:22:44;23.50;99.60
5457;DHT22;2751;49.802;9.944;2023-07-31T10:25:12;23.40;99.90
5457;DHT22;2751;49.802;9.944;2023-07-31T10:27:39;23.30;99.90
5457;DHT22;2751;49.802;9.944;2023-07-31T10:30:10;23.40;99.90
5457;DHT22;2751;49.802;9.944;2023-07-31T10:32:40;23.50;99.90
5457;DHT22;2751;49.802;9.944;2023-07-31T10:35:09;23.40;99.90
5457;DHT22;2751;49.802;9.944;2023-07-31T10:37:38;23.60;99.90
5457;DHT22;2751;49.802;9.944;2023-07-31T10:40:09;23.80;99.90
5457;DHT22;2751;49.802;9.944;2023-07-31T10:42:46;24.10;99.90
5457;DHT22;2751;49.802;9.944;2023-07-31T10:45:23;24.00;99.80
5457;DHT22;2751;49.802;9.944;2023-07-31T10:47:58;23.90;99.50
5457;DHT22;2751;49.802;9.944;2023-07-31T10:50:28;23.70;99.80
5457;DHT22;2751;49.802;9.944;2023-07-31T10:52:56;23.60;99.90
5457;DHT22;2751;49.802;9.944;2023-07-31T10:55:26;23.50;99.80
5457;DHT22;2751;49.802;9.944;2023-07-31T10:57:54;23.50;99.90
5457;DHT22;2751;49.802;9.944;2023-07-31T11:00:24;23.50;99.90
5457;DHT22;2751;49.802;9.944;2023-07-31T11:03:00;23.60;99.80
5457;DHT22;2751;49.802;9.944;2023-07-31T11:05:49;24.00;99.60
5457;DHT22;2751;49.802;9.944;2023-07-31T11:08:19;24.60;98.50
5457;DHT22;2751;49.802;9.944;2023-07-31T11:10:47;24.90;98.50
5457;DHT22;2751;49.802;9.944;2023-07-31T11:13:14;24.80;98.00
5457;DHT22;2751;49.802;9.944;2023-07-31T11:15:41;24.80;98.00
5457;DHT22;2751;49.802;9.944;2023-07-31T11:18:09;24.60;97.80
5457;DHT22;2751;49.802;9.944;2023-07-31T11:20:38;24.30;97.50
5457;DHT22;2751;49.802;9.944;2023-07-31T11:23:08;24.00;97.80
5457;DHT22;2751;49.802;9.944;2023-07-31T11:25:36;24.00;98.00
5457;DHT22;2751;49.802;9.944;2023-07-31T11:28:04;24.10;97.50
5457;DHT22;2751;49.802;9.944;2023-07-31T11:30:32;23.70;97.50
5457;DHT22;2751;49.802;9.944;2023-07-31T11:33:02;23.80;97.60
5457;DHT22;2751;49.802;9.944;2023-07-31T11:35:32;24.10;97.70
5457;DHT22;2751;49.802;9.944;2023-07-31T11:37:59;24.40;97.50
5457;DHT22;2751;49.802;9.944;2023-07-31T11:40:26;24.60;97.00
5457;DHT22;2751;49.802;9.944;2023-07-31T11:42:56;24.40;96.50
5457;DHT22;2751;49.802;9.944;2023-07-31T11:45:25;24.40;97.10
5457;DHT22;2751;49.802;9.944;2023-07-31T11:47:55;24.20;96.40
5457;DHT22;2751;49.802;9.944;2023-07-31T11:50:23;24.00;96.60
5457;DHT22;2751;49.802;9.944;2023-07-31T11:52:56;24.10;96.40
5457;DHT22;2751;49.802;9.944;2023-07-31T11:55:24;24.10;96.40
5457;DHT22;2751;49.802;9.944;2023-07-31T11:57:51;24.30;96.40
5457;DHT22;2751;49.802;9.944;2023-07-31T12:00:20;24.50;96.20
5457;DHT22;2751;49.802;9.944;2023-07-31T12:02:47;24.60;96.00
5457;DHT22;2751;49.802;9.944;2023-07-31T12:05:14;24.70;96.10
5457;DHT22;2751;49.802;9.944;2023-07-31T12:07:49;24.80;95.80
5457;DHT22;2751;49.802;9.944;2023-07-31T12:10:28;25.30;95.30
5457;DHT22;2751;49.802;9.944;2023-07-31T12:13:02;25.60;94.80
5457;DHT22;2751;49.802;9.944;2023-07-31T12:15:37;25.00;95.40
5457;DHT22;2751;49.802;9.944;2023-07-31T12:18:05;24.90;96.30
5457;DHT22;2751;49.802;9.944;2023-07-31T12:20:33;25.00;95.70
5457;DHT22;2751;49.802;9.944;2023-07-31T12:23:00;24.80;95.80
5457;DHT22;2751;49.802;9.944;2023-07-31T12:25:33;24.60;95.60
5457;DHT22;2751;49.802;9.944;2023-07-31T12:28:05;24.30;95.30
5457;DHT22;2751;49.802;9.944;2023-07-31T12:30:37;24.20;95.80
5457;DHT22;2751;49.802;9.944;2023-07-31T12:33:05;24.30;96.00
5457;DHT22;2751;49.802;9.944;2023-07-31T12:35:37;24.50;95.80
5457;DHT22;2751;49.802;9.944;2023-07-31T12:38:04;24.80;95.10
5457;DHT22;2751;49.802;9.944;2023-07-31T12:40:35;25.10;94.80
5457;DHT22;2751;49.802;9.944;2023-07-31T12:43:02;25.40;94.50
5457;DHT22;2751;49.802;9.944;2023-07-31T12:45:30;26.60;93.20
5457;DHT22;2751;49.802;9.944;2023-07-31T12:47:57;27.50;92.80
5457;DHT22;2751;49.802;9.944;2023-07-31T12:50:24;28.90;90.80
5457;DHT22;2751;49.802;9.944;2023-07-31T12:52:51;28.30;89.80
5457;DHT22;2751;49.802;9.944;2023-07-31T12:55:18;26.80;91.00
5457;DHT22;2751;49.802;9.944;2023-07-31T13:01:09;25.10;93.70
5457;DHT22;2751;49.802;9.944;2023-07-31T13:03:36;25.00;96.60
5457;DHT22;2751;49.802;9.944;2023-07-31T13:06:03;24.60;97.90
5457;DHT22;2751;49.802;9.944;2023-07-31T13:08:31;24.20;98.60
5457;DHT22;2751;49.802;9.944;2023-07-31T13:10:58;23.70;99.90
5457;DHT22;2751;49.802;9.944;2023-07-31T13:13:24;23.40;99.90
5457;DHT22;2751;49.802;9.944;2023-07-31T13:15:51;23.50;99.90
5457;DHT22;2751;49.802;9.944;2023-07-31T13:18:20;24.00;99.60
5457;DHT22;2751;49.802;9.944;2023-07-31T13:20:47;25.90;98.80
5457;DHT22;2751;49.802;9.944;2023-07-31T13:23:13;28.30;95.10
5457;DHT22;2751;49.802;9.944;2023-07-31T13:25:40;29.60;93.30
5457;DHT22;2751;49.802;9.944;2023-07-31T13:28:07;29.30;91.70
5457;DHT22;2751;49.802;9.944;2023-07-31T13:30:34;28.80;91.30
5457;DHT22;2751;49.802;9.944;2023-07-31T13:33:01;27.90;91.80
5457;DHT22;2751;49.802;9.944;2023-07-31T13:35:29;27.30;91.90
5457;DHT22;2751;49.802;9.944;2023-07-31T13:37:57;26.80;91.80
5457;DHT22;2751;49.802;9.944;2023-07-31T13:40:23;26.10;92.40
5457;DHT22;2751;49.802;9.944;2023-07-31T13:42:50;25.80;92.90
5457;DHT22;2751;49.802;9.944;2023-07-31T13:45:18;25.70;92.80
5457;DHT22;2751;49.802;9.944;2023-07-31T13:47:45;25.90;92.40
5457;DHT22;2751;49.802;9.944;2023-07-31T13:50:11;25.90;92.40
5457;DHT22;2751;49.802;9.944;2023-07-31T13:52:40;25.70;92.40
5457;DHT22;2751;49.802;9.944;2023-07-31T13:55:07;25.80;92.50
5457;DHT22;2751;49.802;9.944;2023-07-31T13:57:34;25.30;93.00
5457;DHT22;2751;49.802;9.944;2023-07-31T14:00:01;25.20;93.30
5457;DHT22;2751;49.802;9.944;2023-07-31T14:02:29;25.10;93.40
5457;DHT22;2751;49.802;9.944;2023-07-31T14:04:56;25.20;93.40
5457;DHT22;2751;49.802;9.944;2023-07-31T14:07:23;25.20;93.00
5457;DHT22;2751;49.802;9.944;2023-07-31T14:09:51;24.80;93.10
5457;DHT22;2751;49.802;9.944;2023-07-31T14:12:18;24.70;93.90
5457;DHT22;2751;49.802;9.944;2023-07-31T14:14:45;24.60;93.80
5457;DHT22;2751;49.802;9.944;2023-07-31T14:17:14;24.80;93.70
5457;DHT22;2751;49.802;9.944;2023-07-31T14:19:41;24.70;93.70
5457;DHT22;2751;49.802;9.944;2023-07-31T14:22:08;24.40;94.20
5457;DHT22;2751;49.802;9.944;2023-07-31T14:24:35;24.30;94.50
5457;DHT22;2751;49.802;9.944;2023-07-31T14:27:04;24.50;95.10
5457;DHT22;2751;49.802;9.944;2023-07-31T14:29:31;24.70;94.60
5457;DHT22;2751;49.802;9.944;2023-07-31T14:31:58;24.80;94.30
5457;DHT22;2751;49.802;9.944;2023-07-31T14:34:25;24.80;94.20
5457;DHT22;2751;49.802;9.944;2023-07-31T14:36:52;24.70;94.40
5457;DHT22;2751;49.802;9.944;2023-07-31T14:39:19;24.80;94.70
5457;DHT22;2751;49.802;9.944;2023-07-31T14:41:46;25.00;94.70
5457;DHT22;2751;49.802;9.944;2023-07-31T14:44:14;25.10;94.90
5457;DHT22;2751;49.802;9.944;2023-07-31T14:46:41;24.90;94.70
5457;DHT22;2751;49.802;9.944;2023-07-31T14:49:08;24.70;95.30
5457;DHT22;2751;49.802;9.944;2023-07-31T14:51:35;24.20;95.20
5457;DHT22;2751;49.802;9.944;2023-07-31T14:54:02;24.20;95.60
5457;DHT22;2751;49.802;9.944;2023-07-31T14:56:29;24.10;95.50
5457;DHT22;2751;49.802;9.944;2023-07-31T14:58:57;24.00;95.80
5457;DHT22;2751;49.802;9.944;2023-07-31T15:01:25;24.00;96.10
5457;DHT22;2751;49.802;9.944;2023-07-31T15:03:52;24.00;96.10
5457;DHT22;2751;49.802;9.944;2023-07-31T15:06:19;24.00;96.30
5457;DHT22;2751;49.802;9.944;2023-07-31T15:08:46;24.00;96.20
5457;DHT22;2751;49.802;9.944;2023-07-31T15:11:13;23.80;96.40
5457;DHT22;2751;49.802;9.944;2023-07-31T15:13:41;23.60;96.70
5457;DHT22;2751;49.802;9.944;2023-07-31T15:16:08;23.80;96.70
5457;DHT22;2751;49.802;9.944;2023-07-31T15:18:36;23.80;96.60
5457;DHT22;2751;49.802;9.944;2023-07-31T15:21:03;23.90;96.60
5457;DHT22;2751;49.802;9.944;2023-07-31T15:23:32;24.00;96.80
5457;DHT22;2751;49.802;9.944;2023-07-31T15:25:59;24.10;96.70
5457;DHT22;2751;49.802;9.944;2023-07-31T15:28:25;24.30;96.70
5457;DHT22;2751;49.802;9.944;2023-07-31T15:30:53;24.30;96.60
5457;DHT22;2751;49.802;9.944;2023-07-31T15:33:20;24.40;96.50
5457;DHT22;2751;49.802;9.944;2023-07-31T15:35:48;24.10;96.40
5457;DHT22;2751;49.802;9.944;2023-07-31T15:38:15;24.30;96.80
5457;DHT22;2751;49.802;9.944;2023-07-31T15:40:42;24.00;96.90
5457;DHT22;2751;49.802;9.944;2023-07-31T15:43:09;24.00;97.30
5457;DHT22;2751;49.802;9.944;2023-07-31T15:45:36;23.90;97.30
5457;DHT22;2751;49.802;9.944;2023-07-31T15:48:03;23.80;97.40
5457;DHT22;2751;49.802;9.944;2023-07-31T15:50:30;23.60;97.70
5457;DHT22;2751;49.802;9.944;2023-07-31T15:52:58;23.50;97.80
5457;DHT22;2751;49.802;9.944;2023-07-31T15:55:25;23.40;98.30
5457;DHT22;2751;49.802;9.944;2023-07-31T15:57:52;23.40;98.30
5457;DHT22;2751;49.802;9.944;2023-07-31T16:00:19;23.40;98.40
5457;DHT22;2751;49.802;9.944;2023-07-31T16:02:46;23.30;98.40
5457;DHT22;2751;49.802;9.944;2023-07-31T16:05:13;23.30;98.50
5457;DHT22;2751;49.802;9.944;2023-07-31T16:07:40;23.20;98.50
5457;DHT22;2751;49.802;9.944;2023-07-31T16:10:09;23.10;98.60